Time;durP1;ratioP1;P1;durP2;ratioP2;P2;SDS_P1;SDS_P2;PMS_P1;PMS_P2;Temp;Humidity;BMP_temperature;BMP_pressure;BME280_temperature;BME280_humidity;BME280_pressure;Samples;Min_cycle;Max_cycle;Signal;HPM_P1;HPM_P2
2022/06/08 00:00:33;;;;;;;;;;;21.50;60.70;;;;;;5048095;28;82319;-44
2022/06/08 00:03:05;;;;;;;;;;;21.50;60.80;;;;;;5047958;28;83573;-45
2022/06/08 00:05:30;;;;;;;;;;;21.40;60.80;;;;;;5047858;28;82066;-43
2022/06/08 00:07:56;;;;;;;;;;;21.50;60.80;;;;;;5048504;27;82189;-44
2022/06/08 00:10:22;;;;;;;;;;;21.40;60.80;;;;;;5047758;28;82457;-46
2022/06/08 00:12:48;;;;;;;;;;;21.50;60.80;;;;;;5050959;28;81209;-44
2022/06/08 00:15:13;;;;;;;;;;;21.40;60.80;;;;;;5047974;28;82951;-44
2022/06/08 00:17:39;;;;;;;;;;;21.40;60.80;;;;;;5047856;28;82125;-44
2022/06/08 00:20:05;;;;;;;;;;;21.40;60.90;;;;;;5047476;27;82950;-44
2022/06/08 00:22:30;;;;;;;;;;;21.40;60.90;;;;;;5047573;28;82754;-45
2022/06/08 00:24:56;;;;;;;;;;;21.30;60.80;;;;;;5047988;28;81867;-44
2022/06/08 00:27:21;;;;;;;;;;;21.40;60.90;;;;;;5047711;27;84172;-45
2022/06/08 00:29:47;;;;;;;;;;;21.30;60.80;;;;;;5047199;28;82868;-43
2022/06/08 00:32:12;;;;;;;;;;;21.30;60.90;;;;;;5050535;28;82211;-46
2022/06/08 00:34:38;;;;;;;;;;;21.30;61.00;;;;;;5047594;28;83022;-45
2022/06/08 00:37:04;;;;;;;;;;;21.30;60.90;;;;;;5048070;28;81265;-43
2022/06/08 00:39:29;;;;;;;;;;;21.30;61.00;;;;;;5047690;27;81944;-43
2022/06/08 00:41:57;;;;;;;;;;;21.30;61.10;;;;;;5047359;28;82182;-44
2022/06/08 00:44:25;;;;;;;;;;;21.20;61.10;;;;;;5046909;28;82900;-44
2022/06/08 00:46:51;;;;;;;;;;;21.10;61.20;;;;;;5047254;27;83179;-43
2022/06/08 00:49:21;;;;;;;;;;;21.10;61.10;;;;;;5047459;28;82984;-44
2022/06/08 00:51:46;;;;;;;;;;;21.20;61.10;;;;;;5047554;28;82097;-45
2022/06/08 00:54:17;;;;;;;;;;;21.10;61.10;;;;;;5049761;27;83719;-45
2022/06/08 00:56:46;;;;;;;;;;;21.10;61.10;;;;;;5047683;28;81849;-44
2022/06/08 00:59:12;;;;;;;;;;;21.10;61.20;;;;;;5047400;28;82469;-44
2022/06/08 01:01:38;;;;;;;;;;;21.10;61.20;;;;;;5047643;28;82422;-44
2022/06/08 01:04:12;;;;;;;;;;;21.10;61.10;;;;;;5047084;28;82102;-45
2022/06/08 01:06:39;;;;;;;;;;;21.00;61.30;;;;;;5047070;28;82413;-44
2022/06/08 01:09:05;;;;;;;;;;;21.00;61.30;;;;;;5046425;28;84045;-43
2022/06/08 01:11:36;;;;;;;;;;;21.00;61.30;;;;;;5046140;28;82160;-46
2022/06/08 01:14:03;;;;;;;;;;;21.00;61.30;;;;;;5046976;27;82033;-44
2022/06/08 01:16:30;;;;;;;;;;;21.00;61.40;;;;;;5049426;28;84476;-44
2022/06/08 01:18:56;;;;;;;;;;;20.90;61.90;;;;;;5046971;27;82305;-44
2022/06/08 01:21:21;;;;;;;;;;;21.00;61.40;;;;;;5046887;28;83044;-43
2022/06/08 01:24:06;;;;;;;;;;;20.90;61.20;;;;;;5046652;28;81937;-44
2022/06/08 01:26:39;;;;;;;;;;;20.90;61.20;;;;;;5047262;28;84108;-43
2022/06/08 01:29:11;;;;;;;;;;;20.90;61.20;;;;;;5046481;28;84211;-44
2022/06/08 01:31:42;;;;;;;;;;;20.90;61.30;;;;;;5046936;28;83130;-43
2022/06/08 01:34:25;;;;;;;;;;;20.90;61.30;;;;;;5045940;27;82703;-44
2022/06/08 01:37:03;;;;;;;;;;;20.90;61.30;;;;;;5046614;28;82833;-44
2022/06/08 01:39:40;;;;;;;;;;;20.90;61.30;;;;;;5049544;28;82063;-45
2022/06/08 01:42:12;;;;;;;;;;;20.80;61.30;;;;;;5046493;28;82953;-43
2022/06/08 01:44:40;;;;;;;;;;;20.80;61.30;;;;;;5046591;28;82091;-43
2022/06/08 01:47:22;;;;;;;;;;;20.80;61.30;;;;;;5046492;27;82561;-45
2022/06/08 01:49:57;;;;;;;;;;;20.80;61.30;;;;;;5046462;28;83484;-43
2022/06/08 01:52:34;;;;;;;;;;;20.80;61.40;;;;;;5046867;28;81912;-43
2022/06/08 01:55:11;;;;;;;;;;;20.70;61.40;;;;;;5046266;27;83625;-44
2022/06/08 01:57:51;;;;;;;;;;;20.70;61.50;;;;;;5046229;28;83013;-44
2022/06/08 02:00:20;;;;;;;;;;;20.70;62.00;;;;;;5045243;28;83022;-44
2022/06/08 02:02:48;;;;;;;;;;;20.70;61.40;;;;;;5048279;27;85110;-44
2022/06/08 02:05:23;;;;;;;;;;;20.70;61.40;;;;;;5046404;28;81998;-43
2022/06/08 02:07:53;;;;;;;;;;;20.60;61.30;;;;;;5046355;28;83061;-43
2022/06/08 02:10:18;;;;;;;;;;;20.70;61.40;;;;;;5046057;28;82927;-44
2022/06/08 02:12:48;;;;;;;;;;;20.70;61.40;;;;;;5046186;28;82123;-45
2022/06/08 02:15:18;;;;;;;;;;;20.60;61.40;;;;;;5045950;28;82294;-45
2022/06/08 02:17:47;;;;;;;;;;;20.60;61.40;;;;;;5046140;28;82338;-43
2022/06/08 02:20:18;;;;;;;;;;;20.60;61.40;;;;;;5045720;28;82072;-44
2022/06/08 02:22:47;;;;;;;;;;;20.60;61.40;;;;;;5048560;27;82013;-44
2022/06/08 02:25:16;;;;;;;;;;;20.60;61.50;;;;;;5044882;28;83029;-45
2022/06/08 02:27:46;;;;;;;;;;;20.50;61.50;;;;;;5045985;27;83315;-44
2022/06/08 02:30:17;;;;;;;;;;;20.50;61.60;;;;;;5045458;28;83415;-45
2022/06/08 02:35:48;;;;;;;;;;;20.50;61.50;;;;;;5045799;28;82118;-44
2022/06/08 02:38:16;;;;;;;;;;;20.50;61.50;;;;;;5045802;28;82414;-43
2022/06/08 02:40:44;;;;;;;;;;;20.40;61.50;;;;;;5045747;28;82031;-44
2022/06/08 02:43:17;;;;;;;;;;;20.40;61.60;;;;;;5046181;28;84181;-45
2022/06/08 02:45:43;;;;;;;;;;;20.40;61.60;;;;;;5047794;28;82984;-44
2022/06/08 02:48:10;;;;;;;;;;;20.40;61.60;;;;;;5045600;27;82577;-44
2022/06/08 02:50:36;;;;;;;;;;;20.40;61.60;;;;;;5044709;28;84035;-44
2022/06/08 02:53:25;;;;;;;;;;;20.40;61.50;;;;;;5045700;28;81966;-44
2022/06/08 02:55:55;;;;;;;;;;;20.40;61.60;;;;;;5045434;28;82326;-44
2022/06/08 02:58:25;;;;;;;;;;;20.40;61.60;;;;;;5045410;28;83628;-44
2022/06/08 03:00:53;;;;;;;;;;;20.30;61.70;;;;;;5045615;28;82056;-46
2022/06/08 03:03:25;;;;;;;;;;;20.30;61.60;;;;;;5045472;28;82980;-44
2022/06/08 03:05:57;;;;;;;;;;;20.20;61.70;;;;;;5045423;28;82925;-44
2022/06/08 03:08:25;;;;;;;;;;;20.30;61.60;;;;;;5048970;28;82155;-43
2022/06/08 03:10:51;;;;;;;;;;;20.30;61.60;;;;;;5045721;27;83038;-43
2022/06/08 03:13:20;;;;;;;;;;;20.20;61.60;;;;;;5049169;28;82287;-43
2022/06/08 03:15:50;;;;;;;;;;;20.20;61.70;;;;;;5048495;28;82783;-43
2022/06/08 03:18:16;;;;;;;;;;;20.20;61.90;;;;;;5048612;28;82060;-44
2022/06/08 03:20:41;;;;;;;;;;;20.20;61.70;;;;;;5048610;28;82076;-44
2022/06/08 03:23:07;;;;;;;;;;;20.20;61.60;;;;;;5048803;27;82557;-43
2022/06/08 03:25:32;;;;;;;;;;;20.20;61.70;;;;;;5048732;28;82961;-43
2022/06/08 03:27:58;;;;;;;;;;;20.10;61.70;;;;;;5048977;28;81667;-43
2022/06/08 03:30:24;;;;;;;;;;;20.20;61.70;;;;;;5051491;27;82608;-44
2022/06/08 03:32:49;;;;;;;;;;;20.10;61.70;;;;;;5049227;28;81339;-43
2022/06/08 03:35:15;;;;;;;;;;;20.10;61.80;;;;;;5048625;27;81992;-46
2022/06/08 03:37:41;;;;;;;;;;;20.10;61.80;;;;;;5048337;28;83115;-44
2022/06/08 03:40:07;;;;;;;;;;;20.10;61.60;;;;;;5047940;28;82987;-45
2022/06/08 03:42:32;;;;;;;;;;;20.10;61.70;;;;;;5048577;27;83244;-44
2022/06/08 03:44:58;;;;;;;;;;;20.10;61.90;;;;;;5048376;28;82311;-44
2022/06/08 03:47:28;;;;;;;;;;;20.00;61.90;;;;;;5048604;28;82080;-43
2022/06/08 03:49:55;;;;;;;;;;;20.00;61.90;;;;;;5048330;27;82468;-44
2022/06/08 03:52:23;;;;;;;;;;;20.00;61.90;;;;;;5050864;28;84404;-44
2022/06/08 03:54:52;;;;;;;;;;;20.00;61.90;;;;;;5048172;28;82836;-44
2022/06/08 03:57:19;;;;;;;;;;;20.00;61.90;;;;;;5048720;28;82450;-45
2022/06/08 03:59:46;;;;;;;;;;;20.00;61.90;;;;;;5048050;28;82046;-43
2022/06/08 04:02:12;;;;;;;;;;;19.90;61.90;;;;;;5048288;27;82321;-44
2022/06/08 04:04:38;;;;;;;;;;;19.90;61.90;;;;;;5047511;28;83821;-45
2022/06/08 04:07:04;;;;;;;;;;;19.90;61.90;;;;;;5048060;28;82115;-44
2022/06/08 04:09:30;;;;;;;;;;;19.90;61.80;;;;;;5048294;27;81844;-43
2022/06/08 04:11:55;;;;;;;;;;;19.90;62.00;;;;;;5047254;28;82795;-44
2022/06/08 04:14:21;;;;;;;;;;;19.90;62.00;;;;;;5050608;28;82001;-44
2022/06/08 04:16:47;;;;;;;;;;;19.90;61.90;;;;;;5047681;28;82813;-44
2022/06/08 04:19:13;;;;;;;;;;;19.90;62.00;;;;;;5047795;28;82062;-44
2022/06/08 04:21:40;;;;;;;;;;;19.80;62.10;;;;;;5047510;27;83741;-44
2022/06/08 04:24:06;;;;;;;;;;;19.80;62.10;;;;;;5047462;28;82326;-45
2022/06/08 04:26:32;;;;;;;;;;;19.80;62.20;;;;;;5047817;28;82027;-44
2022/06/08 04:28:57;;;;;;;;;;;19.80;62.20;;;;;;5047069;27;82979;-44
2022/06/08 04:31:23;;;;;;;;;;;19.80;62.20;;;;;;5047583;28;82978;-44
2022/06/08 04:33:49;;;;;;;;;;;19.80;62.20;;;;;;5050469;28;82235;-44
2022/06/08 04:36:15;;;;;;;;;;;19.80;62.20;;;;;;5047204;28;83017;-43
2022/06/08 04:38:41;;;;;;;;;;;19.80;62.20;;;;;;5047883;28;82100;-44
2022/06/08 04:41:07;;;;;;;;;;;19.80;62.20;;;;;;5047614;27;82473;-44
2022/06/08 04:43:33;;;;;;;;;;;19.80;62.10;;;;;;5047319;28;82906;-43
2022/06/08 04:45:59;;;;;;;;;;;19.80;62.20;;;;;;5047944;28;81611;-44
2022/06/08 04:48:24;;;;;;;;;;;19.80;62.20;;;;;;5047614;27;81880;-43
2022/06/08 04:50:50;;;;;;;;;;;19.80;62.20;;;;;;5047295;28;82858;-44
2022/06/08 04:53:15;;;;;;;;;;;19.80;62.20;;;;;;5046638;28;82984;-43
2022/06/08 04:55:41;;;;;;;;;;;19.80;62.30;;;;;;5050184;27;83349;-44
2022/06/08 04:58:07;;;;;;;;;;;19.70;62.30;;;;;;5047353;28;81856;-44
2022/06/08 05:00:32;;;;;;;;;;;19.80;62.30;;;;;;5047132;27;82465;-44
2022/06/08 05:02:58;;;;;;;;;;;19.70;62.40;;;;;;5047375;28;83164;-44
2022/06/08 05:05:23;;;;;;;;;;;19.70;62.30;;;;;;5046864;28;82055;-45
2022/06/08 05:07:49;;;;;;;;;;;19.70;62.30;;;;;;5047120;28;82531;-44
2022/06/08 05:10:15;;;;;;;;;;;19.70;62.40;;;;;;5047226;28;83504;-43
2022/06/08 05:12:41;;;;;;;;;;;19.70;62.60;;;;;;5046881;28;81958;-44
2022/06/08 05:15:08;;;;;;;;;;;19.60;62.60;;;;;;5047091;28;82588;-44
2022/06/08 05:17:34;;;;;;;;;;;19.60;62.60;;;;;;5048639;28;86367;-44
2022/06/08 05:19:59;;;;;;;;;;;19.60;62.60;;;;;;5047138;27;83280;-45
2022/06/08 05:22:25;;;;;;;;;;;19.60;62.70;;;;;;5046368;28;82925;-45
2022/06/08 05:24:51;;;;;;;;;;;19.70;62.70;;;;;;5047163;28;83142;-44
2022/06/08 05:27:17;;;;;;;;;;;19.60;62.70;;;;;;5046806;28;82348;-43
2022/06/08 05:29:44;;;;;;;;;;;19.70;62.70;;;;;;5046240;28;84392;-43
2022/06/08 05:32:09;;;;;;;;;;;19.60;62.60;;;;;;5046592;28;81999;-44
2022/06/08 05:34:35;;;;;;;;;;;19.60;62.70;;;;;;5045894;27;82533;-45
2022/06/08 05:37:00;;;;;;;;;;;19.60;62.70;;;;;;5046350;28;82058;-44
2022/06/08 05:39:25;;;;;;;;;;;19.70;62.70;;;;;;5049442;28;82064;-44
2022/06/08 05:41:51;;;;;;;;;;;19.70;62.60;;;;;;5045850;28;83963;-44
2022/06/08 05:44:20;;;;;;;;;;;19.70;62.60;;;;;;5046603;28;82384;-45
2022/06/08 05:46:49;;;;;;;;;;;19.70;62.40;;;;;;5046133;28;82659;-44
2022/06/08 05:49:15;;;;;;;;;;;19.70;62.50;;;;;;5045925;28;82935;-45
2022/06/08 05:51:41;;;;;;;;;;;19.70;62.50;;;;;;5045875;28;82095;-44
2022/06/08 05:54:06;;;;;;;;;;;19.70;62.60;;;;;;5046182;28;82421;-44
2022/06/08 05:56:32;;;;;;;;;;;19.70;62.70;;;;;;5046212;28;83485;-43
2022/06/08 05:58:57;;;;;;;;;;;19.70;62.60;;;;;;5046996;28;81354;-44
2022/06/08 06:01:23;;;;;;;;;;;19.70;62.60;;;;;;5048885;27;81990;-43
2022/06/08 06:03:50;;;;;;;;;;;19.70;62.60;;;;;;5046249;28;81942;-44
2022/06/08 06:06:16;;;;;;;;;;;19.70;62.60;;;;;;5045164;28;83793;-45
2022/06/08 06:08:41;;;;;;;;;;;19.70;62.70;;;;;;5045955;28;82923;-44
2022/06/08 06:11:07;;;;;;;;;;;19.70;62.50;;;;;;5045311;28;82092;-45
2022/06/08 06:13:34;;;;;;;;;;;19.70;62.60;;;;;;5046137;28;82283;-45
2022/06/08 06:15:59;;;;;;;;;;;19.70;62.70;;;;;;5045579;28;84762;-43
2022/06/08 06:18:25;;;;;;;;;;;19.70;62.70;;;;;;5046235;28;81979;-44
2022/06/08 06:20:51;;;;;;;;;;;19.80;62.50;;;;;;5045970;28;82387;-44
2022/06/08 06:23:17;;;;;;;;;;;19.80;62.50;;;;;;5049199;28;81412;-45
2022/06/08 06:25:43;;;;;;;;;;;19.80;62.70;;;;;;5046025;27;82325;-44
2022/06/08 06:28:08;;;;;;;;;;;19.80;62.60;;;;;;5045974;28;82859;-45
2022/06/08 06:30:34;;;;;;;;;;;19.70;62.80;;;;;;5045554;28;83007;-44
2022/06/08 06:32:59;;;;;;;;;;;19.80;62.80;;;;;;5045866;28;83722;-44
2022/06/08 06:35:26;;;;;;;;;;;19.80;62.70;;;;;;5045588;28;82889;-45
2022/06/08 06:37:52;;;;;;;;;;;19.80;62.70;;;;;;5046089;28;82423;-45
2022/06/08 06:40:18;;;;;;;;;;;19.80;62.80;;;;;;5045694;28;83856;-46
2022/06/08 06:42:44;;;;;;;;;;;19.80;62.90;;;;;;5048376;28;83241;-44
2022/06/08 06:45:10;;;;;;;;;;;19.80;62.80;;;;;;5047105;27;81838;-44
2022/06/08 06:47:35;;;;;;;;;;;19.80;62.80;;;;;;5049879;28;82206;-44
2022/06/08 06:50:02;;;;;;;;;;;19.80;62.80;;;;;;5049279;28;81975;-44
2022/06/08 06:52:27;;;;;;;;;;;19.80;62.90;;;;;;5049228;28;82326;-44
2022/06/08 06:54:53;;;;;;;;;;;19.80;63.00;;;;;;5048480;28;84426;-45
2022/06/08 06:57:18;;;;;;;;;;;19.80;62.80;;;;;;5049412;28;82075;-44
2022/06/08 06:59:44;;;;;;;;;;;19.90;62.70;;;;;;5049210;27;84084;-44
2022/06/08 07:02:14;;;;;;;;;;;19.90;62.80;;;;;;5049125;28;81790;-44
2022/06/08 07:04:40;;;;;;;;;;;19.90;62.90;;;;;;5051493;28;82098;-44
2022/06/08 07:07:06;;;;;;;;;;;19.90;62.80;;;;;;5048610;28;84185;-45
2022/06/08 07:09:32;;;;;;;;;;;19.90;62.80;;;;;;5049297;28;82103;-44
2022/06/08 07:11:58;;;;;;;;;;;19.90;62.70;;;;;;5049127;28;83138;-44
2022/06/08 07:14:24;;;;;;;;;;;19.90;62.90;;;;;;5048901;28;82822;-43
2022/06/08 07:16:51;;;;;;;;;;;19.90;62.80;;;;;;5048981;28;82079;-44
2022/06/08 07:19:18;;;;;;;;;;;19.90;62.90;;;;;;5048370;27;83003;-44
2022/06/08 07:21:44;;;;;;;;;;;19.90;62.80;;;;;;5048470;28;83336;-44
2022/06/08 07:24:36;;;;;;;;;;;19.90;62.80;;;;;;5048859;28;82079;-44
2022/06/08 07:27:03;;;;;;;;;;;19.90;62.80;;;;;;5049343;27;82469;-45
2022/06/08 07:29:28;;;;;;;;;;;19.90;62.80;;;;;;5048688;28;81988;-45
2022/06/08 07:31:54;;;;;;;;;;;19.90;62.80;;;;;;5048756;27;82240;-43
2022/06/08 07:34:20;;;;;;;;;;;19.90;62.80;;;;;;5044537;28;89336;-44
2022/06/08 07:36:45;;;;;;;;;;;19.90;63.00;;;;;;5045724;28;86293;-44
2022/06/08 07:39:13;;;;;;;;;;;19.90;62.90;;;;;;5045010;27;87166;-44
2022/06/08 07:41:39;;;;;;;;;;;19.90;62.60;;;;;;5044721;28;89429;-44
2022/06/08 07:44:04;;;;;;;;;;;19.90;62.70;;;;;;5044514;28;88493;-46
2022/06/08 07:46:30;;;;;;;;;;;20.00;62.70;;;;;;5044912;28;88194;-45
2022/06/08 07:51:40;;;;;;;;;;;20.00;62.70;;;;;;5045410;28;86829;-44
2022/06/08 07:54:05;;;;;;;;;;;20.10;62.60;;;;;;5044590;28;87802;-45
2022/06/08 07:56:30;;;;;;;;;;;20.00;62.50;;;;;;5044094;27;87098;-44
2022/06/08 07:58:56;;;;;;;;;;;20.00;62.50;;;;;;5045070;28;87394;-44
2022/06/08 08:01:21;;;;;;;;;;;20.00;62.50;;;;;;5044868;28;86460;-44
2022/06/08 08:03:47;;;;;;;;;;;20.00;62.40;;;;;;5044995;28;87110;-46
2022/06/08 08:06:12;;;;;;;;;;;20.00;62.50;;;;;;5044777;28;87684;-44
2022/06/08 08:08:38;;;;;;;;;;;20.00;62.40;;;;;;5043798;28;88830;-45
2022/06/08 08:11:04;;;;;;;;;;;20.00;62.40;;;;;;5047207;28;87197;-44
2022/06/08 08:13:30;;;;;;;;;;;20.00;62.50;;;;;;5044253;28;88125;-44
2022/06/08 08:15:55;;;;;;;;;;;20.00;62.50;;;;;;5044519;28;87081;-44
2022/06/08 08:18:21;;;;;;;;;;;20.00;62.50;;;;;;5044488;27;89400;-44
2022/06/08 08:20:46;;;;;;;;;;;20.00;63.10;;;;;;5044201;28;87549;-44
2022/06/08 08:23:12;;;;;;;;;;;20.00;62.50;;;;;;5044925;28;87158;-44
2022/06/08 08:25:38;;;;;;;;;;;20.00;62.40;;;;;;5044877;27;87887;-44
2022/06/08 08:28:03;;;;;;;;;;;20.00;62.50;;;;;;5044193;28;88112;-44
2022/06/08 08:30:29;;;;;;;;;;;20.10;62.50;;;;;;5044194;28;87535;-43
2022/06/08 08:32:56;;;;;;;;;;;20.00;62.40;;;;;;5046296;28;88028;-44
2022/06/08 08:35:23;;;;;;;;;;;20.00;62.40;;;;;;5044119;28;87071;-46
2022/06/08 08:37:49;;;;;;;;;;;20.00;62.40;;;;;;5044230;27;87391;-45
2022/06/08 08:40:35;;;;;;;;;;;20.10;62.50;;;;;;5044095;27;87929;-44
2022/06/08 08:43:01;;;;;;;;;;;20.10;62.60;;;;;;5035668;28;87147;-45
2022/06/08 08:45:28;;;;;;;;;;;20.10;62.60;;;;;;5044320;27;87328;-46
2022/06/08 08:48:03;;;;;;;;;;;20.10;62.60;;;;;;5043765;28;87876;-44
2022/06/08 08:50:34;;;;;;;;;;;20.10;62.70;;;;;;5044405;28;86354;-44
2022/06/08 08:53:20;;;;;;;;;;;20.10;62.60;;;;;;5046798;27;86963;-44
2022/06/08 08:55:46;;;;;;;;;;;20.10;62.70;;;;;;5043163;28;87187;-44
2022/06/08 08:58:14;;;;;;;;;;;20.10;62.80;;;;;;5043300;28;87841;-44
2022/06/08 09:00:47;;;;;;;;;;;20.10;62.70;;;;;;5043859;28;88275;-47
2022/06/08 09:03:15;;;;;;;;;;;20.10;65.60;;;;;;5043777;28;87060;-45
2022/06/08 09:05:42;;;;;;;;;;;20.10;65.50;;;;;;5044038;28;86980;-46
2022/06/08 09:08:11;;;;;;;;;;;20.10;65.50;;;;;;5043106;27;88014;-45
2022/06/08 09:10:38;;;;;;;;;;;20.20;65.40;;;;;;5043138;28;87098;-44
2022/06/08 09:13:04;;;;;;;;;;;20.20;65.00;;;;;;5043851;28;87064;-46
2022/06/08 09:15:54;;;;;;;;;;;20.20;64.60;;;;;;5046254;28;88585;-45
2022/06/08 09:18:39;;;;;;;;;;;20.30;64.90;;;;;;5043781;27;88080;-45
2022/06/08 09:21:23;;;;;;;;;;;20.30;64.20;;;;;;5043255;28;88071;-45
2022/06/08 09:23:50;;;;;;;;;;;20.30;64.10;;;;;;5043075;27;88028;-45
2022/06/08 09:26:26;;;;;;;;;;;20.30;64.20;;;;;;5043502;27;88292;-45
2022/06/08 09:28:59;;;;;;;;;;;20.30;64.30;;;;;;5043176;28;88028;-45
2022/06/08 09:31:26;;;;;;;;;;;20.40;64.00;;;;;;5043158;28;87104;-45
2022/06/08 09:34:03;;;;;;;;;;;20.30;64.40;;;;;;5043028;28;87545;-45
2022/06/08 09:36:28;;;;;;;;;;;20.40;64.30;;;;;;5042816;28;89135;-47
2022/06/08 09:38:54;;;;;;;;;;;20.40;64.40;;;;;;5046231;28;87177;-45
2022/06/08 09:41:36;;;;;;;;;;;20.30;64.70;;;;;;5043148;28;88018;-47
2022/06/08 09:44:05;;;;;;;;;;;20.30;64.40;;;;;;5043281;28;87010;-46
2022/06/08 09:52:26;;;;;;;;;;;20.40;64.10;;;;;;5043468;28;88176;-47
2022/06/08 09:55:03;;;;;;;;;;;20.40;63.90;;;;;;5042873;27;89071;-45
2022/06/08 09:57:41;;;;;;;;;;;20.50;64.70;;;;;;5042357;28;89536;-47
2022/06/08 10:00:12;;;;;;;;;;;20.50;63.90;;;;;;5042670;28;86898;-44
2022/06/08 10:02:46;;;;;;;;;;;20.50;64.00;;;;;;5045452;28;87482;-45
2022/06/08 10:05:12;;;;;;;;;;;20.50;64.20;;;;;;5043189;28;87123;-45
2022/06/08 10:07:56;;;;;;;;;;;20.50;63.90;;;;;;5043545;27;86471;-45
2022/06/08 10:10:22;;;;;;;;;;;20.60;63.90;;;;;;5042623;27;87779;-47
2022/06/08 10:12:52;;;;;;;;;;;20.60;64.20;;;;;;5042730;28;87175;-46
2022/06/08 10:15:36;;;;;;;;;;;20.60;64.00;;;;;;5042332;27;87952;-44
2022/06/08 10:18:11;;;;;;;;;;;20.60;64.20;;;;;;5042678;28;87950;-44
2022/06/08 10:20:46;;;;;;;;;;;20.60;64.50;;;;;;5042441;28;86944;-46
2022/06/08 10:23:20;;;;;;;;;;;20.60;64.70;;;;;;5042889;27;87511;-46
2022/06/08 10:25:47;;;;;;;;;;;20.60;64.70;;;;;;5045058;28;88037;-47
2022/06/08 10:28:18;;;;;;;;;;;20.60;64.30;;;;;;5042818;28;87579;-45
2022/06/08 10:30:49;;;;;;;;;;;20.60;64.40;;;;;;5042494;28;88061;-45
2022/06/08 10:33:17;;;;;;;;;;;20.60;64.30;;;;;;5043041;28;86331;-45
2022/06/08 10:35:45;;;;;;;;;;;20.60;64.60;;;;;;5042289;27;88242;-45
2022/06/08 10:38:20;;;;;;;;;;;20.60;64.90;;;;;;5041893;28;90047;-47
2022/06/08 10:40:56;;;;;;;;;;;20.60;64.80;;;;;;5041889;28;87936;-45
2022/06/08 10:43:24;;;;;;;;;;;20.60;64.70;;;;;;5042638;27;88713;-47
2022/06/08 10:45:58;;;;;;;;;;;20.60;64.50;;;;;;5042058;28;88158;-46
2022/06/08 10:48:31;;;;;;;;;;;20.70;64.80;;;;;;5044914;27;87065;-45
2022/06/08 10:51:12;;;;;;;;;;;20.70;64.50;;;;;;5042024;28;89380;-45
2022/06/08 10:56:46;;;;;;;;;;;20.70;64.60;;;;;;5042460;28;87080;-48
2022/06/08 10:59:16;;;;;;;;;;;20.70;64.50;;;;;;5042165;28;88943;-44
2022/06/08 11:01:41;;;;;;;;;;;20.80;64.70;;;;;;5042163;28;87489;-45
2022/06/08 11:04:27;;;;;;;;;;;20.80;64.90;;;;;;5042442;27;87680;-45
2022/06/08 11:07:02;;;;;;;;;;;20.80;64.80;;;;;;5041223;28;89218;-48
2022/06/08 11:09:33;;;;;;;;;;;20.80;64.80;;;;;;5044985;28;86956;-45
2022/06/08 11:12:17;;;;;;;;;;;20.80;64.70;;;;;;5041298;28;88664;-46
2022/06/08 11:14:42;;;;;;;;;;;20.80;64.40;;;;;;5042249;28;86936;-46
2022/06/08 11:17:09;;;;;;;;;;;20.90;64.50;;;;;;5042164;27;87532;-46
2022/06/08 11:19:35;;;;;;;;;;;20.80;64.70;;;;;;5041687;28;88166;-48
2022/06/08 11:22:03;;;;;;;;;;;20.90;64.60;;;;;;5041595;28;87141;-45
2022/06/08 11:24:36;;;;;;;;;;;20.90;64.50;;;;;;5042355;27;87387;-44
2022/06/08 11:27:11;;;;;;;;;;;20.90;64.20;;;;;;5041621;28;87505;-46
2022/06/08 11:29:40;;;;;;;;;;;20.90;64.40;;;;;;5041687;28;87101;-45
2022/06/08 11:32:19;;;;;;;;;;;20.90;64.30;;;;;;5044541;27;88959;-45
2022/06/08 11:35:07;;;;;;;;;;;20.90;64.40;;;;;;5045097;28;86955;-46
2022/06/08 11:37:39;;;;;;;;;;;20.90;64.40;;;;;;5038954;28;87517;-45
2022/06/08 11:40:20;;;;;;;;;;;21.00;64.50;;;;;;5045121;28;88120;-47
2022/06/08 11:42:51;;;;;;;;;;;21.00;64.30;;;;;;5045256;28;86978;-45
2022/06/08 11:45:17;;;;;;;;;;;21.00;64.30;;;;;;5045002;27;87434;-46
2022/06/08 11:47:48;;;;;;;;;;;21.00;64.10;;;;;;5044566;28;88338;-46
2022/06/08 11:50:19;;;;;;;;;;;21.00;64.20;;;;;;5045526;28;86178;-44
2022/06/08 11:52:55;;;;;;;;;;;21.00;64.20;;;;;;5045033;28;86977;-45
2022/06/08 11:55:22;;;;;;;;;;;21.00;64.30;;;;;;5047669;28;89205;-44
2022/06/08 11:57:55;;;;;;;;;;;21.10;64.20;;;;;;5044331;28;87925;-45
2022/06/08 12:00:24;;;;;;;;;;;21.10;64.30;;;;;;5044502;28;88347;-46
2022/06/08 12:02:52;;;;;;;;;;;21.20;64.30;;;;;;5045088;28;87182;-46
2022/06/08 12:05:21;;;;;;;;;;;21.20;64.40;;;;;;5044778;27;87422;-45
2022/06/08 12:07:47;;;;;;;;;;;21.20;64.40;;;;;;5044538;28;88176;-45
2022/06/08 12:10:15;;;;;;;;;;;21.20;64.30;;;;;;5044379;28;87077;-45
2022/06/08 12:12:42;;;;;;;;;;;21.30;64.40;;;;;;5044415;27;87022;-45
2022/06/08 12:15:25;;;;;;;;;;;21.30;64.40;;;;;;5044405;28;88632;-44
2022/06/08 12:17:50;;;;;;;;;;;21.30;64.40;;;;;;5047675;28;86971;-44
2022/06/08 12:20:34;;;;;;;;;;;21.30;64.50;;;;;;5044242;28;87015;-45
2022/06/08 12:23:00;;;;;;;;;;;21.30;64.50;;;;;;5043775;28;88044;-45
2022/06/08 12:25:27;;;;;;;;;;;21.40;64.30;;;;;;5044245;27;89847;-49
2022/06/08 12:28:09;;;;;;;;;;;21.40;64.30;;;;;;5044109;28;88117;-45
2022/06/08 12:30:52;;;;;;;;;;;21.40;64.30;;;;;;5044475;28;87093;-44
2022/06/08 12:33:17;;;;;;;;;;;21.50;64.40;;;;;;5043894;27;87515;-49
2022/06/08 12:35:53;;;;;;;;;;;21.50;64.30;;;;;;5043866;28;87710;-46
2022/06/08 12:38:20;;;;;;;;;;;21.60;64.40;;;;;;5044105;28;87690;-45
2022/06/08 12:41:01;;;;;;;;;;;21.60;64.40;;;;;;5047513;27;87374;-45
2022/06/08 12:43:39;;;;;;;;;;;21.60;64.40;;;;;;5043684;27;87103;-48
2022/06/08 12:46:17;;;;;;;;;;;21.60;64.40;;;;;;5043998;27;88850;-45
2022/06/08 12:48:54;;;;;;;;;;;21.70;64.40;;;;;;5043062;28;88461;-45
2022/06/08 12:51:29;;;;;;;;;;;21.70;64.40;;;;;;5044234;28;87226;-46
2022/06/08 12:53:57;;;;;;;;;;;21.70;64.40;;;;;;5043916;27;87542;-45
2022/06/08 12:56:23;;;;;;;;;;;21.70;64.30;;;;;;5043642;28;88089;-45
2022/06/08 12:58:50;;;;;;;;;;;21.70;64.30;;;;;;5044176;28;87086;-47
2022/06/08 13:01:16;;;;;;;;;;;21.70;64.30;;;;;;5046384;27;87390;-44
2022/06/08 13:03:43;;;;;;;;;;;21.80;64.40;;;;;;5044037;28;87109;-45
2022/06/08 13:06:09;;;;;;;;;;;21.80;64.50;;;;;;5044225;27;87278;-46
2022/06/08 13:08:36;;;;;;;;;;;21.80;64.30;;;;;;5043693;28;88056;-45
2022/06/08 13:11:05;;;;;;;;;;;21.80;64.40;;;;;;5043154;28;87383;-44
2022/06/08 13:13:32;;;;;;;;;;;21.80;64.30;;;;;;5043282;27;87658;-46
2022/06/08 13:15:59;;;;;;;;;;;21.80;64.50;;;;;;5043315;28;87187;-46
2022/06/08 13:18:26;;;;;;;;;;;21.80;64.50;;;;;;5043774;28;87071;-45
2022/06/08 13:20:53;;;;;;;;;;;21.80;64.50;;;;;;5043376;27;88567;-45
2022/06/08 13:23:19;;;;;;;;;;;21.80;64.90;;;;;;5045881;28;88000;-46
2022/06/08 13:25:46;;;;;;;;;;;21.80;64.40;;;;;;5043736;27;87432;-44
2022/06/08 13:28:14;;;;;;;;;;;21.80;64.40;;;;;;5043034;28;89732;-45
2022/06/08 13:30:39;;;;;;;;;;;21.80;64.40;;;;;;5043799;28;86501;-44
2022/06/08 13:33:55;;;;;;;;;;;21.80;64.40;;;;;;5043624;27;86758;-45
2022/06/08 13:35:50;;;;;;;;;;;21.80;64.50;;;;;;5041862;28;88373;-45
2022/06/08 13:38:16;;;;;;;;;;;21.80;64.40;;;;;;5042618;28;87961;-44
2022/06/08 13:40:41;;;;;;;;;;;21.80;64.50;;;;;;5043258;28;88304;-45
2022/06/08 13:43:08;;;;;;;;;;;21.80;64.40;;;;;;5043107;28;87107;-45
2022/06/08 13:45:37;;;;;;;;;;;21.80;64.40;;;;;;5046233;28;87105;-47
2022/06/08 13:48:06;;;;;;;;;;;21.90;64.40;;;;;;5042671;28;88022;-47
2022/06/08 13:50:37;;;;;;;;;;;21.90;64.50;;;;;;5042950;28;87817;-46
2022/06/08 13:53:04;;;;;;;;;;;21.90;64.40;;;;;;5043034;27;88795;-46
2022/06/08 13:55:33;;;;;;;;;;;21.80;64.40;;;;;;5042354;27;89639;-45
2022/06/08 13:58:00;;;;;;;;;;;21.90;64.40;;;;;;5043150;28;87700;-47
2022/06/08 14:00:27;;;;;;;;;;;21.90;64.30;;;;;;5042590;28;89044;-48
2022/06/08 14:02:55;;;;;;;;;;;21.90;64.40;;;;;;5042052;28;88995;-45
2022/06/08 14:12:59;;;;;;;;;;;21.90;64.40;;;;;;5042927;28;87078;-44
2022/06/08 14:13:45;;;;;;;;;;;21.90;64.40;;;;;;5043145;28;87021;-46
2022/06/08 14:16:12;;;;;;;;;;;21.90;64.40;;;;;;5042268;28;88907;-44
2022/06/08 14:18:51;;;;;;;;;;;21.90;64.30;;;;;;5042817;28;87037;-46
2022/06/08 14:21:18;;;;;;;;;;;21.90;64.20;;;;;;5042935;27;88619;-45
2022/06/08 14:23:44;;;;;;;;;;;21.90;64.10;;;;;;5042299;28;88016;-46
2022/06/08 14:26:15;;;;;;;;;;;21.90;64.20;;;;;;5042747;28;88113;-46
2022/06/08 14:28:41;;;;;;;;;;;21.90;64.20;;;;;;5041995;27;88804;-44
2022/06/08 14:31:10;;;;;;;;;;;21.90;64.10;;;;;;5045127;28;88485;-45
2022/06/08 14:33:35;;;;;;;;;;;22.00;64.20;;;;;;5042447;27;87932;-45
2022/06/08 14:36:01;;;;;;;;;;;22.00;64.20;;;;;;5042256;28;88276;-46
2022/06/08 14:38:30;;;;;;;;;;;21.90;64.10;;;;;;5042465;28;87042;-45
2022/06/08 14:40:59;;;;;;;;;;;21.90;64.10;;;;;;5042330;27;89066;-45
2022/06/08 14:43:24;;;;;;;;;;;22.00;64.20;;;;;;5042044;28;89391;-44
2022/06/08 14:45:50;;;;;;;;;;;22.00;64.20;;;;;;5042568;28;86357;-45